Terminal Aerodrome Forecast
Issued by NWS

Home | Current Version | Previous Version | Text Only | Print | Product List | Glossary On
Versions: 1 2 3 4 5 6 7 8 9 10 11 12 13 14 15 16 17 18 19 20 21 22
000
FTUS46 KSEW 192300
TAFBFI
TAF
KBFI 192321Z 2000/2024 19008KT P6SM FEW040 SCT070
     FM200500 16005KT P6SM BKN050 OVC150
     FM200700 16006KT P6SM -RA OVC050
     FM201100 18008KT P6SM -RA BKN025 OVC045
     FM202000 19006KT P6SM -SHRA SCT030 BKN050=

USA.gov is the U.S. government's official web portal to all federal, state and local government web resources and services.